Julo — DJ8108 — position and weather

sailwx.info

Track history (hours):
 
Tides and Currents Weather Stations Pressure Air Temp Water Temp Dewpoint Dewpoint Depression Visibility Wind Speed Wind Dir Waves Ship Positions

Julo

Last reported at 2017-Oct-11 00:00 UTC. Time now 2017-Oct-17 11:40 UTC.
Position N 37°46' W 010°40'.

Length 14 m.

Type: Sailing vessel. MMSI: 211390920.

Date/timePositionNaut miles runAvg speedWind from/ knotsBaromVisibWave heightAir tempDewpointWater temp
2017-Oct-11 00:00N 37°46' W 010°40'3 5.1
2017-Oct-10 23:30N 37°46' W 010°37'2 4.7
2017-Oct-10 23:00N 37°46' W 010°34'2 3.9
2017-Oct-10 22:30N 37°46' W 010°32'2 4.3
2017-Oct-10 22:00N 37°47' W 010°29'3 5.8
2017-Oct-10 21:30N 37°49' W 010°26'3 5.7
2017-Oct-10 21:00N 37°51' W 010°23'3 5.8
2017-Oct-10 20:30N 37°53' W 010°21'3 5.9
2017-Oct-10 20:00N 37°55' W 010°18'3 5.9
2017-Oct-10 19:30N 37°57' W 010°16'3 6.0
2017-Oct-10 19:00N 37°59' W 010°13'3 6.0
2017-Oct-10 18:30N 38°01' W 010°10'3 6.0
2017-Oct-10 18:00N 38°03' W 010°08'3 6.9
2017-Oct-10 17:30N 38°06' W 010°05'2 5.0
2017-Oct-10 17:00N 38°08' W 010°03'2 4.2
2017-Oct-10 16:30N 38°09' W 010°01'2 4.3
2017-Oct-10 16:00N 38°11' W 009°59'2 4.0
2017-Oct-10 15:30N 38°12' W 009°57'3 5.3
2017-Oct-10 15:00N 38°14' W 009°54'6 6.2
2017-Oct-10 14:00N 38°18' W 009°48'4 6.9
2017-Oct-10 13:30N 38°20' W 009°45'3 7.1
2017-Oct-10 13:00N 38°23' W 009°42'4 6.9
2017-Oct-10 12:30N 38°26' W 009°39'3 6.4
2017-Oct-10 12:00N 38°28' W 009°36'3 6.6
2017-Oct-10 11:30N 38°30' W 009°34'3 6.6
2017-Oct-10 11:00N 38°33' W 009°30'3 6.3
2017-Oct-10 10:31N 38°35' W 009°28'3 6.3
2017-Oct-10 10:00N 38°37' W 009°25'3 6.5
2017-Oct-10 09:30N 38°39' W 009°22'3 4.2
2017-Oct-10 08:54N 38°41' W 009°19'0 0.0
2017-Oct-10 08:30N 38°41' W 009°19'0 0.0
2017-Oct-10 07:57N 38°41' W 009°19'0 0.0
2017-Oct-10 07:30N 38°41' W 009°19'0 0.0
2017-Oct-10 06:57N 38°41' W 009°19'0 0.0
2017-Oct-10 06:30N 38°41' W 009°19'0 0.0
2017-Oct-10 05:51N 38°41' W 009°19'0 0.0
2017-Oct-10 05:21N 38°41' W 009°19'0 0.0
2017-Oct-10 05:00N 38°41' W 009°19'0 0.0
2017-Oct-10 04:21N 38°41' W 009°19'0 0.0
2017-Oct-10 03:53N 38°41' W 009°19'0 0.0
2017-Oct-10 03:26N 38°41' W 009°19'0 0.0
2017-Oct-10 02:20N 38°41' W 009°19'0 0.0
2017-Oct-10 01:50N 38°41' W 009°19'0 0.0
2017-Oct-10 01:29N 38°41' W 009°19'0 0.0
2017-Oct-10 00:53N 38°41' W 009°19'0 0.0
2017-Oct-10 00:29N 38°41' W 009°19'0 0.0
2017-Oct-09 23:53N 38°41' W 009°19'0 0.0
2017-Oct-09 23:29N 38°41' W 009°19'0 0.0
2017-Oct-09 22:59N 38°41' W 009°19'0 0.0
2017-Oct-09 22:29N 38°41' W 009°19'0 0.0
2017-Oct-09 21:58N 38°41' W 009°19'0 0.0
2017-Oct-09 21:28N 38°41' W 009°19'0 0.0
2017-Oct-09 20:59N 38°41' W 009°19'0 0.0
2017-Oct-09 19:55N 38°41' W 009°19'0 0.0
2017-Oct-09 19:04N 38°41' W 009°19'0 0.0
2017-Oct-09 18:43N 38°41' W 009°19'0 0.1
2017-Oct-09 18:27N 38°41' W 009°19'3 4.9
2017-Oct-09 17:55N 38°41' W 009°16'4 5.6
2017-Oct-09 17:08N 38°42' W 009°10'1 5.7
2017-Oct-09 16:58N 38°42' W 009°09'2 5.2
2017-Oct-09 16:30N 38°43' W 009°06'2 1.4
2017-Oct-09 14:58N 38°45' W 009°06'0 0.0
2017-Oct-09 14:25N 38°45' W 009°06'0 0.0
2017-Oct-09 13:31N 38°45' W 009°06'0 0.0
2017-Oct-09 13:22N 38°45' W 009°06'0 0.0
2017-Oct-09 11:46N 38°45' W 009°06'0 0.0
2017-Oct-09 11:19N 38°45' W 009°06'0 0.0
2017-Oct-09 10:31N 38°45' W 009°06'0 0.0
2017-Oct-09 10:28N 38°45' W 009°06'0 0.0
2017-Oct-09 09:58N 38°45' W 009°06'0 0.0
2017-Oct-09 09:28N 38°45' W 009°06'0 0.0
2017-Oct-09 08:58N 38°45' W 009°06'0 0.0
2017-Oct-09 07:49N 38°45' W 009°06'0 0.0
2017-Oct-09 07:25N 38°45' W 009°06'0 0.0
2017-Oct-09 06:49N 38°45' W 009°06'0 0.0
2017-Oct-09 06:01N 38°45' W 009°06'0 0.0
2017-Oct-09 05:58N 38°45' W 009°06'0 0.0
2017-Oct-09 05:25N 38°45' W 009°06'0 0.0
2017-Oct-09 05:01N 38°45' W 009°06'0 0.0
2017-Oct-09 04:24N 38°45' W 009°06'0 0.0
2017-Oct-09 03:58N 38°45' W 009°06'0 0.0
2017-Oct-09 03:24N 38°45' W 009°06'0 0.0
2017-Oct-09 02:54N 38°45' W 009°06'0 0.0
2017-Oct-09 02:30N 38°45' W 009°06'0 0.0
2017-Oct-09 01:24N 38°45' W 009°06'0 0.0
2017-Oct-08 23:48N 38°45' W 009°06'0 0.0
2017-Oct-08 23:21N 38°45' W 009°06'0 0.0
2017-Oct-08 21:43N 38°45' W 009°06'0 0.0
2017-Oct-08 21:28N 38°45' W 009°06'0 0.0
2017-Oct-08 20:51N 38°45' W 009°06'0 0.0
2017-Oct-08 20:17N 38°45' W 009°06'0 0.0
2017-Oct-08 19:59N 38°45' W 009°06'0 0.0
2017-Oct-08 19:27N 38°45' W 009°06'0 0.0
2017-Oct-08 19:00N 38°45' W 009°06'0 0.0
2017-Oct-08 18:24N 38°45' W 009°06'0 0.0
2017-Oct-08 18:00N 38°45' W 009°06'0 0.0
2017-Oct-08 16:36N 38°45' W 009°06'0 0.0
2017-Oct-08 16:09N 38°45' W 009°06'0 0.0
2017-Oct-08 16:00N 38°45' W 009°06'0 0.0
2017-Oct-08 13:45N 38°45' W 009°06'0 0.0
2017-Oct-08 13:12N 38°45' W 009°06'0 0.0
2017-Oct-08 09:48N 38°45' W 009°06'0 0.0
2017-Oct-08 09:27N 38°45' W 009°06'0 0.0
2017-Oct-08 09:00N 38°45' W 009°06'0 0.0
2017-Oct-08 08:30N 38°45' W 009°06'0 0.0
2017-Oct-08 08:00N 38°45' W 009°06'0 0.0
2017-Oct-08 07:24N 38°45' W 009°06'0 0.0
2017-Oct-08 06:48N 38°45' W 009°06'0 0.0
2017-Oct-08 06:30N 38°45' W 009°06'0 0.0
2017-Oct-08 06:00N 38°45' W 009°06'0 0.0
2017-Oct-08 05:06N 38°45' W 009°06'0 0.0
2017-Oct-08 04:45N 38°45' W 009°06'0 0.0
2017-Oct-08 03:33N 38°45' W 009°06'0 0.0
2017-Oct-08 03:24N 38°45' W 009°06'0 0.0
2017-Oct-08 02:57N 38°45' W 009°06'0 0.0
2017-Oct-07 20:18N 38°45' W 009°06'0 0.0
2017-Oct-07 18:42N 38°45' W 009°06'0 0.0
2017-Oct-07 18:19N 38°45' W 009°06'0 0.0
2017-Oct-07 17:52N 38°45' W 009°06'0 0.0
2017-Oct-07 17:19N 38°45' W 009°06'0 0.0
2017-Oct-07 13:06N 38°45' W 009°06'0 0.0
2017-Oct-07 12:51N 38°45' W 009°06'0 0.0
2017-Oct-07 06:36N 38°45' W 009°06'0 0.0
2017-Oct-07 06:21N 38°45' W 009°06'0 0.0
2017-Oct-07 05:48N 38°45' W 009°06'0 0.0
2017-Oct-07 04:33N 38°45' W 009°06'0 0.0
2017-Oct-07 04:18N 38°45' W 009°06'0 0.0
2017-Oct-07 03:57N 38°45' W 009°06'0 0.0
2017-Oct-07 03:30N 38°45' W 009°06'0 0.0
2017-Oct-07 01:39N 38°45' W 009°06'0 0.0
2017-Oct-07 01:24N 38°45' W 009°06'0 0.0
2017-Oct-07 00:57N 38°45' W 009°06'0 0.0
2017-Oct-07 00:27N 38°45' W 009°06'0 0.0
2017-Oct-06 22:45N 38°45' W 009°06'0 0.0
2017-Oct-06 21:38N 38°45' W 009°06'0 0.0
2017-Oct-06 21:17N 38°45' W 009°06'0 0.0
2017-Oct-06 20:15N 38°45' W 009°06'0 0.0
2017-Oct-06 19:48N 38°45' W 009°06'0 0.0
2017-Oct-06 18:27N 38°45' W 009°06'0 0.0
2017-Oct-06 14:08N 38°45' W 009°06'0 0.0
2017-Oct-06 13:59N 38°45' W 009°06'0 0.0
2017-Oct-06 13:26N 38°45' W 009°06'0 0.0
2017-Oct-06 12:25N 38°45' W 009°06'0 0.0
2017-Oct-06 11:19N 38°45' W 009°06'0 0.0
2017-Oct-06 10:45N 38°45' W 009°06'0 0.0
2017-Oct-06 10:19N 38°45' W 009°06'0 0.0
2017-Oct-06 09:10N 38°45' W 009°06'0 0.0
2017-Oct-06 09:00N 38°45' W 009°06'0 0.0
2017-Oct-06 07:06N 38°45' W 009°06'0 0.0
2017-Oct-06 06:57N 38°45' W 009°06'0 0.0
2017-Oct-06 05:50N 38°45' W 009°06'0 0.0
2017-Oct-06 05:19N 38°45' W 009°06'0 0.0
2017-Oct-06 04:49N 38°45' W 009°06'0 0.0
2017-Oct-06 04:25N 38°45' W 009°06'0 0.0
2017-Oct-06 03:58N 38°45' W 009°06'0 0.0
2017-Oct-06 03:22N 38°45' W 009°06'0 0.0
2017-Oct-06 02:58N 38°45' W 009°06'0 0.0
2017-Oct-06 01:25N 38°45' W 009°06'0 0.0
2017-Oct-06 00:58N 38°45' W 009°06'0 0.0
2017-Oct-06 00:16N 38°45' W 009°06'0 0.0
2017-Oct-05 23:40N 38°45' W 009°06'0 0.0
2017-Oct-05 23:28N 38°45' W 009°06'0 0.0
2017-Oct-05 22:49N 38°45' W 009°06'0 0.0
2017-Oct-05 22:22N 38°45' W 009°06'0 0.0
2017-Oct-05 15:28N 38°45' W 009°06'0 0.0
2017-Oct-05 12:31N 38°45' W 009°06'0 0.0
2017-Oct-05 10:46N 38°45' W 009°06'0 0.0
2017-Oct-05 10:28N 38°45' W 009°06'0 0.0
2017-Oct-05 09:58N 38°45' W 009°06'0 0.0
2017-Oct-05 09:28N 38°45' W 009°06'0 0.0
2017-Oct-05 08:10N 38°45' W 009°06'0 0.0
2017-Oct-05 07:58N 38°45' W 009°06'0 0.0
2017-Oct-05 07:25N 38°45' W 009°06'0 0.0
2017-Oct-05 06:58N 38°45' W 009°06'0 0.0
2017-Oct-04 23:03N 38°45' W 009°06'0 0.0
2017-Oct-04 22:46N 38°45' W 009°06'0 0.0
2017-Oct-04 22:24N 38°45' W 009°06'0 0.0
2017-Oct-04 22:00N 38°45' W 009°06'0 0.0
2017-Oct-04 21:28N 38°45' W 009°06'0 0.0
2017-Oct-04 18:02N 38°45' W 009°06'0 0.0
2017-Oct-04 17:47N 38°45' W 009°06'0 0.0
2017-Oct-04 16:32N 38°45' W 009°06'0 0.0
2017-Oct-04 16:14N 38°45' W 009°06'0 0.0
2017-Oct-04 15:50N 38°45' W 009°06'0 0.0
2017-Oct-04 11:34N 38°45' W 009°06'0 0.0
2017-Oct-04 11:07N 38°45' W 009°06'0 0.0
2017-Oct-04 10:58N 38°45' W 009°06'0 0.0
2017-Oct-04 10:28N 38°45' W 009°06'0 0.0
2017-Oct-04 08:55N 38°45' W 009°06'0 0.0
2017-Oct-04 08:28N 38°45' W 009°06'0 0.0
2017-Oct-04 07:46N 38°45' W 009°06'0 0.0
2017-Oct-04 07:22N 38°45' W 009°06'0 0.0
2017-Oct-04 05:49N 38°45' W 009°06'0 0.0
2017-Oct-04 05:25N 38°45' W 009°06'0 0.0
2017-Oct-04 04:58N 38°45' W 009°06'0 0.0
2017-Oct-04 04:25N 38°45' W 009°06'0 0.0
2017-Oct-04 03:58N 38°45' W 009°06'0 0.0
2017-Oct-04 03:25N 38°45' W 009°06'0 0.0
2017-Oct-04 01:36N 38°45' W 009°06'0 0.0
2017-Oct-04 01:30N 38°45' W 009°06'0 0.0
2017-Oct-04 00:30N 38°45' W 009°06'0 0.0
2017-Oct-03 23:48N 38°45' W 009°06'0 0.0
2017-Oct-03 23:21N 38°45' W 009°06'0 0.0
2017-Oct-03 22:57N 38°45' W 009°06'0 0.0
2017-Oct-03 22:21N 38°45' W 009°06'0 0.0
2017-Oct-03 21:59N 38°45' W 009°06'0 0.0
2017-Oct-03 21:29N 38°45' W 009°06'0 0.0
2017-Oct-03 20:50N 38°45' W 009°06'0 0.0
2017-Oct-03 20:29N 38°45' W 009°06'0 0.0
2017-Oct-03 19:56N 38°45' W 009°06'0 0.0
2017-Oct-03 19:11N 38°45' W 009°06'0 0.0
2017-Oct-03 18:59N 38°45' W 009°06'0 0.0
2017-Oct-03 18:21N 38°45' W 009°06'0 0.0
2017-Oct-03 17:42N 38°45' W 009°06'0 0.0
2017-Oct-03 17:27N 38°45' W 009°06'0 0.0
2017-Oct-03 16:57N 38°45' W 009°06'0 0.0
2017-Oct-03 16:30N 38°45' W 009°06'0 0.0
2017-Oct-03 15:32N 38°45' W 009°06'0 0.0
2017-Oct-03 15:08N 38°45' W 009°06'0 0.0
2017-Oct-03 14:50N 38°45' W 009°06'0 0.0
2017-Oct-03 11:56N 38°45' W 009°06'0 0.0
2017-Oct-03 11:17N 38°45' W 009°06'0 0.0
2017-Oct-03 10:59N 38°45' W 009°06'0 0.0
2017-Oct-03 10:29N 38°45' W 009°06'0 0.0
2017-Oct-03 09:56N 38°45' W 009°06'0 0.0
2017-Oct-03 09:29N 38°45' W 009°06'0 0.0
2017-Oct-03 08:59N 38°45' W 009°06'0 0.0
2017-Oct-03 08:23N 38°45' W 009°06'0 0.0
2017-Oct-03 07:56N 38°45' W 009°06'0 0.0
2017-Oct-03 07:29N 38°45' W 009°06'0 0.0
2017-Oct-03 06:53N 38°45' W 009°06'0 0.0
2017-Oct-03 06:29N 38°45' W 009°06'0 0.0
2017-Oct-03 05:59N 38°45' W 009°06'0 0.0
2017-Oct-03 05:29N 38°45' W 009°06'0 0.0
2017-Oct-03 04:59N 38°45' W 009°06'0 0.0
2017-Oct-03 03:32N 38°45' W 009°06'0 0.0
2017-Oct-03 03:26N 38°45' W 009°06'0 0.0
2017-Oct-03 02:56N 38°45' W 009°06'0 0.0
2017-Oct-03 02:23N 38°45' W 009°06'0 0.0
2017-Oct-03 01:56N 38°45' W 009°06'0 0.0
2017-Oct-02 19:47N 38°45' W 009°06'0 0.0
2017-Oct-02 09:58N 38°45' W 009°06'0 0.0
2017-Oct-02 09:28N 38°45' W 009°06'0 0.0
2017-Oct-02 08:58N 38°45' W 009°06'0 0.0
2017-Oct-02 07:46N 38°45' W 009°06'0 0.0
2017-Oct-02 07:28N 38°45' W 009°06'0 0.0
2017-Oct-02 06:52N 38°45' W 009°06'0 0.0
2017-Oct-02 05:40N 38°45' W 009°06'0 0.0
2017-Oct-02 05:22N 38°45' W 009°06'0 0.0
2017-Oct-02 04:55N 38°45' W 009°06'0 0.0
2017-Oct-02 04:28N 38°45' W 009°06'0 0.0
2017-Oct-02 03:52N 38°45' W 009°06'0 0.0
2017-Oct-02 02:31N 38°45' W 009°06'0 0.0
2017-Oct-02 02:01N 38°45' W 009°06'0 0.0
2017-Oct-02 01:55N 38°45' W 009°06'0 0.0
2017-Oct-02 01:28N 38°45' W 009°06'0 0.0
2017-Oct-02 00:58N 38°45' W 009°06'0 0.0
2017-Oct-02 00:22N 38°45' W 009°06'0 0.0
2017-Oct-01 23:58N 38°45' W 009°06'0 0.0
2017-Oct-01 23:13N 38°45' W 009°06'0 0.0
2017-Oct-01 22:55N 38°45' W 009°06'0 0.0
2017-Oct-01 22:19N 38°45' W 009°06'0 0.0
2017-Oct-01 21:43N 38°45' W 009°06'0 0.0
2017-Oct-01 21:19N 38°45' W 009°06'0 0.0
2017-Oct-01 20:57N 38°45' W 009°06'0 0.0
2017-Oct-01 20:12N 38°45' W 009°06'0 0.0
2017-Oct-01 19:54N 38°45' W 009°06'0 0.0
2017-Oct-01 16:45N 38°45' W 009°06'0 0.0
2017-Oct-01 16:24N 38°45' W 009°06'0 0.0
2017-Oct-01 11:11N 38°45' W 009°06'0 0.0
2017-Oct-01 10:38N 38°45' W 009°06'0 0.0
2017-Oct-01 10:26N 38°45' W 009°06'0 0.0
2017-Oct-01 09:59N 38°45' W 009°06'0 0.0
2017-Oct-01 09:29N 38°45' W 009°06'0 0.0
2017-Oct-01 08:59N 38°45' W 009°06'0 0.0
2017-Oct-01 08:17N 38°45' W 009°06'0 0.0
2017-Oct-01 07:59N 38°45' W 009°06'0 0.0
2017-Oct-01 06:05N 38°45' W 009°06'0 0.0
2017-Oct-01 05:50N 38°45' W 009°06'0 0.0
2017-Oct-01 05:23N 38°45' W 009°06'0 0.0
2017-Oct-01 04:38N 38°45' W 009°06'0 0.0
2017-Oct-01 04:20N 38°45' W 009°06'0 0.0
2017-Oct-01 03:17N 38°45' W 009°06'0 0.0
2017-Oct-01 02:59N 38°45' W 009°06'  
Track history (hours):
 
Tides and Currents Weather Stations Pressure Air Temp Water Temp Dewpoint Dewpoint Depression Visibility Wind Speed Wind Dir Waves Ship Positions

Julo

Last reported at 2017-Oct-11 00:00 UTC. Time now 2017-Oct-17 11:40 UTC.
Position N 37°46' W 010°40'.

Length 14 m.

Type: Sailing vessel. MMSI: 211390920.

Date/timePositionNaut miles runAvg speedWind from/ knotsBaromVisibWave heightAir tempDewpointWater temp
2017-Oct-11 00:00N 37°46' W 010°40'3 5.1
2017-Oct-10 23:30N 37°46' W 010°37'2 4.7
2017-Oct-10 23:00N 37°46' W 010°34'2 3.9
2017-Oct-10 22:30N 37°46' W 010°32'2 4.3
2017-Oct-10 22:00N 37°47' W 010°29'3 5.8
2017-Oct-10 21:30N 37°49' W 010°26'3 5.7
2017-Oct-10 21:00N 37°51' W 010°23'3 5.8
2017-Oct-10 20:30N 37°53' W 010°21'3 5.9
2017-Oct-10 20:00N 37°55' W 010°18'3 5.9
2017-Oct-10 19:30N 37°57' W 010°16'3 6.0
2017-Oct-10 19:00N 37°59' W 010°13'3 6.0
2017-Oct-10 18:30N 38°01' W 010°10'3 6.0
2017-Oct-10 18:00N 38°03' W 010°08'3 6.9
2017-Oct-10 17:30N 38°06' W 010°05'2 5.0
2017-Oct-10 17:00N 38°08' W 010°03'2 4.2
2017-Oct-10 16:30N 38°09' W 010°01'2 4.3
2017-Oct-10 16:00N 38°11' W 009°59'2 4.0
2017-Oct-10 15:30N 38°12' W 009°57'3 5.3
2017-Oct-10 15:00N 38°14' W 009°54'6 6.2
2017-Oct-10 14:00N 38°18' W 009°48'4 6.9
2017-Oct-10 13:30N 38°20' W 009°45'3 7.1
2017-Oct-10 13:00N 38°23' W 009°42'4 6.9
2017-Oct-10 12:30N 38°26' W 009°39'3 6.4
2017-Oct-10 12:00N 38°28' W 009°36'3 6.6
2017-Oct-10 11:30N 38°30' W 009°34'3 6.6
2017-Oct-10 11:00N 38°33' W 009°30'3 6.3
2017-Oct-10 10:31N 38°35' W 009°28'3 6.3
2017-Oct-10 10:00N 38°37' W 009°25'3 6.5
2017-Oct-10 09:30N 38°39' W 009°22'3 4.2
2017-Oct-10 08:54N 38°41' W 009°19'0 0.0
2017-Oct-10 08:30N 38°41' W 009°19'0 0.0
2017-Oct-10 07:57N 38°41' W 009°19'0 0.0
2017-Oct-10 07:30N 38°41' W 009°19'0 0.0
2017-Oct-10 06:57N 38°41' W 009°19'0 0.0
2017-Oct-10 06:30N 38°41' W 009°19'0 0.0
2017-Oct-10 05:51N 38°41' W 009°19'0 0.0
2017-Oct-10 05:21N 38°41' W 009°19'0 0.0
2017-Oct-10 05:00N 38°41' W 009°19'0 0.0
2017-Oct-10 04:21N 38°41' W 009°19'0 0.0
2017-Oct-10 03:53N 38°41' W 009°19'0 0.0
2017-Oct-10 03:26N 38°41' W 009°19'0 0.0
2017-Oct-10 02:20N 38°41' W 009°19'0 0.0
2017-Oct-10 01:50N 38°41' W 009°19'0 0.0
2017-Oct-10 01:29N 38°41' W 009°19'0 0.0
2017-Oct-10 00:53N 38°41' W 009°19'0 0.0
2017-Oct-10 00:29N 38°41' W 009°19'0 0.0
2017-Oct-09 23:53N 38°41' W 009°19'0 0.0
2017-Oct-09 23:29N 38°41' W 009°19'0 0.0
2017-Oct-09 22:59N 38°41' W 009°19'0 0.0
2017-Oct-09 22:29N 38°41' W 009°19'0 0.0
2017-Oct-09 21:58N 38°41' W 009°19'0 0.0
2017-Oct-09 21:28N 38°41' W 009°19'0 0.0
2017-Oct-09 20:59N 38°41' W 009°19'0 0.0
2017-Oct-09 19:55N 38°41' W 009°19'0 0.0
2017-Oct-09 19:04N 38°41' W 009°19'0 0.0
2017-Oct-09 18:43N 38°41' W 009°19'0 0.1
2017-Oct-09 18:27N 38°41' W 009°19'3 4.9
2017-Oct-09 17:55N 38°41' W 009°16'4 5.6
2017-Oct-09 17:08N 38°42' W 009°10'1 5.7
2017-Oct-09 16:58N 38°42' W 009°09'2 5.2
2017-Oct-09 16:30N 38°43' W 009°06'2 1.4
2017-Oct-09 14:58N 38°45' W 009°06'0 0.0
2017-Oct-09 14:25N 38°45' W 009°06'0 0.0
2017-Oct-09 13:31N 38°45' W 009°06'0 0.0
2017-Oct-09 13:22N 38°45' W 009°06'0 0.0
2017-Oct-09 11:46N 38°45' W 009°06'0 0.0
2017-Oct-09 11:19N 38°45' W 009°06'0 0.0
2017-Oct-09 10:31N 38°45' W 009°06'0 0.0
2017-Oct-09 10:28N 38°45' W 009°06'0 0.0
2017-Oct-09 09:58N 38°45' W 009°06'0 0.0
2017-Oct-09 09:28N 38°45' W 009°06'0 0.0
2017-Oct-09 08:58N 38°45' W 009°06'0 0.0
2017-Oct-09 07:49N 38°45' W 009°06'0 0.0
2017-Oct-09 07:25N 38°45' W 009°06'0 0.0
2017-Oct-09 06:49N 38°45' W 009°06'0 0.0
2017-Oct-09 06:01N 38°45' W 009°06'0 0.0
2017-Oct-09 05:58N 38°45' W 009°06'0 0.0
2017-Oct-09 05:25N 38°45' W 009°06'0 0.0
2017-Oct-09 05:01N 38°45' W 009°06'0 0.0
2017-Oct-09 04:24N 38°45' W 009°06'0 0.0
2017-Oct-09 03:58N 38°45' W 009°06'0 0.0
2017-Oct-09 03:24N 38°45' W 009°06'0 0.0
2017-Oct-09 02:54N 38°45' W 009°06'0 0.0
2017-Oct-09 02:30N 38°45' W 009°06'0 0.0
2017-Oct-09 01:24N 38°45' W 009°06'0 0.0
2017-Oct-08 23:48N 38°45' W 009°06'0 0.0
2017-Oct-08 23:21N 38°45' W 009°06'0 0.0
2017-Oct-08 21:43N 38°45' W 009°06'0 0.0
2017-Oct-08 21:28N 38°45' W 009°06'0 0.0
2017-Oct-08 20:51N 38°45' W 009°06'0 0.0
2017-Oct-08 20:17N 38°45' W 009°06'0 0.0
2017-Oct-08 19:59N 38°45' W 009°06'0 0.0
2017-Oct-08 19:27N 38°45' W 009°06'0 0.0
2017-Oct-08 19:00N 38°45' W 009°06'0 0.0
2017-Oct-08 18:24N 38°45' W 009°06'0 0.0
2017-Oct-08 18:00N 38°45' W 009°06'0 0.0
2017-Oct-08 16:36N 38°45' W 009°06'0 0.0
2017-Oct-08 16:09N 38°45' W 009°06'0 0.0
2017-Oct-08 16:00N 38°45' W 009°06'0 0.0
2017-Oct-08 13:45N 38°45' W 009°06'0 0.0
2017-Oct-08 13:12N 38°45' W 009°06'0 0.0
2017-Oct-08 09:48N 38°45' W 009°06'0 0.0
2017-Oct-08 09:27N 38°45' W 009°06'0 0.0
2017-Oct-08 09:00N 38°45' W 009°06'0 0.0
2017-Oct-08 08:30N 38°45' W 009°06'0 0.0
2017-Oct-08 08:00N 38°45' W 009°06'0 0.0
2017-Oct-08 07:24N 38°45' W 009°06'0 0.0
2017-Oct-08 06:48N 38°45' W 009°06'0 0.0
2017-Oct-08 06:30N 38°45' W 009°06'0 0.0
2017-Oct-08 06:00N 38°45' W 009°06'0 0.0
2017-Oct-08 05:06N 38°45' W 009°06'0 0.0
2017-Oct-08 04:45N 38°45' W 009°06'0 0.0
2017-Oct-08 03:33N 38°45' W 009°06'0 0.0
2017-Oct-08 03:24N 38°45' W 009°06'0 0.0
2017-Oct-08 02:57N 38°45' W 009°06'0 0.0
2017-Oct-07 20:18N 38°45' W 009°06'0 0.0
2017-Oct-07 18:42N 38°45' W 009°06'0 0.0
2017-Oct-07 18:19N 38°45' W 009°06'0 0.0
2017-Oct-07 17:52N 38°45' W 009°06'0 0.0
2017-Oct-07 17:19N 38°45' W 009°06'0 0.0
2017-Oct-07 13:06N 38°45' W 009°06'0 0.0
2017-Oct-07 12:51N 38°45' W 009°06'0 0.0
2017-Oct-07 06:36N 38°45' W 009°06'0 0.0
2017-Oct-07 06:21N 38°45' W 009°06'0 0.0
2017-Oct-07 05:48N 38°45' W 009°06'0 0.0
2017-Oct-07 04:33N 38°45' W 009°06'0 0.0
2017-Oct-07 04:18N 38°45' W 009°06'0 0.0
2017-Oct-07 03:57N 38°45' W 009°06'0 0.0
2017-Oct-07 03:30N 38°45' W 009°06'0 0.0
2017-Oct-07 01:39N 38°45' W 009°06'0 0.0
2017-Oct-07 01:24N 38°45' W 009°06'0 0.0
2017-Oct-07 00:57N 38°45' W 009°06'0 0.0
2017-Oct-07 00:27N 38°45' W 009°06'0 0.0
2017-Oct-06 22:45N 38°45' W 009°06'0 0.0
2017-Oct-06 21:38N 38°45' W 009°06'0 0.0
2017-Oct-06 21:17N 38°45' W 009°06'0 0.0
2017-Oct-06 20:15N 38°45' W 009°06'0 0.0
2017-Oct-06 19:48N 38°45' W 009°06'0 0.0
2017-Oct-06 18:27N 38°45' W 009°06'0 0.0
2017-Oct-06 14:08N 38°45' W 009°06'0 0.0
2017-Oct-06 13:59N 38°45' W 009°06'0 0.0
2017-Oct-06 13:26N 38°45' W 009°06'0 0.0
2017-Oct-06 12:25N 38°45' W 009°06'0 0.0
2017-Oct-06 11:19N 38°45' W 009°06'0 0.0
2017-Oct-06 10:45N 38°45' W 009°06'0 0.0
2017-Oct-06 10:19N 38°45' W 009°06'0 0.0
2017-Oct-06 09:10N 38°45' W 009°06'0 0.0
2017-Oct-06 09:00N 38°45' W 009°06'0 0.0
2017-Oct-06 07:06N 38°45' W 009°06'0 0.0
2017-Oct-06 06:57N 38°45' W 009°06'0 0.0
2017-Oct-06 05:50N 38°45' W 009°06'0 0.0
2017-Oct-06 05:19N 38°45' W 009°06'0 0.0
2017-Oct-06 04:49N 38°45' W 009°06'0 0.0
2017-Oct-06 04:25N 38°45' W 009°06'0 0.0
2017-Oct-06 03:58N 38°45' W 009°06'0 0.0
2017-Oct-06 03:22N 38°45' W 009°06'0 0.0
2017-Oct-06 02:58N 38°45' W 009°06'0 0.0
2017-Oct-06 01:25N 38°45' W 009°06'0 0.0
2017-Oct-06 00:58N 38°45' W 009°06'0 0.0
2017-Oct-06 00:16N 38°45' W 009°06'0 0.0
2017-Oct-05 23:40N 38°45' W 009°06'0 0.0
2017-Oct-05 23:28N 38°45' W 009°06'0 0.0
2017-Oct-05 22:49N 38°45' W 009°06'0 0.0
2017-Oct-05 22:22N 38°45' W 009°06'0 0.0
2017-Oct-05 15:28N 38°45' W 009°06'0 0.0
2017-Oct-05 12:31N 38°45' W 009°06'0 0.0
2017-Oct-05 10:46N 38°45' W 009°06'0 0.0
2017-Oct-05 10:28N 38°45' W 009°06'0 0.0
2017-Oct-05 09:58N 38°45' W 009°06'0 0.0
2017-Oct-05 09:28N 38°45' W 009°06'0 0.0
2017-Oct-05 08:10N 38°45' W 009°06'0 0.0
2017-Oct-05 07:58N 38°45' W 009°06'0 0.0
2017-Oct-05 07:25N 38°45' W 009°06'0 0.0
2017-Oct-05 06:58N 38°45' W 009°06'0 0.0
2017-Oct-04 23:03N 38°45' W 009°06'0 0.0
2017-Oct-04 22:46N 38°45' W 009°06'0 0.0
2017-Oct-04 22:24N 38°45' W 009°06'0 0.0
2017-Oct-04 22:00N 38°45' W 009°06'0 0.0
2017-Oct-04 21:28N 38°45' W 009°06'0 0.0
2017-Oct-04 18:02N 38°45' W 009°06'0 0.0
2017-Oct-04 17:47N 38°45' W 009°06'0 0.0
2017-Oct-04 16:32N 38°45' W 009°06'0 0.0
2017-Oct-04 16:14N 38°45' W 009°06'0 0.0
2017-Oct-04 15:50N 38°45' W 009°06'0 0.0
2017-Oct-04 11:34N 38°45' W 009°06'0 0.0
2017-Oct-04 11:07N 38°45' W 009°06'0 0.0
2017-Oct-04 10:58N 38°45' W 009°06'0 0.0
2017-Oct-04 10:28N 38°45' W 009°06'0 0.0
2017-Oct-04 08:55N 38°45' W 009°06'0 0.0
2017-Oct-04 08:28N 38°45' W 009°06'0 0.0
2017-Oct-04 07:46N 38°45' W 009°06'0 0.0
2017-Oct-04 07:22N 38°45' W 009°06'0 0.0
2017-Oct-04 05:49N 38°45' W 009°06'0 0.0
2017-Oct-04 05:25N 38°45' W 009°06'0 0.0
2017-Oct-04 04:58N 38°45' W 009°06'0 0.0
2017-Oct-04 04:25N 38°45' W 009°06'0 0.0
2017-Oct-04 03:58N 38°45' W 009°06'0 0.0
2017-Oct-04 03:25N 38°45' W 009°06'0 0.0
2017-Oct-04 01:36N 38°45' W 009°06'0 0.0
2017-Oct-04 01:30N 38°45' W 009°06'0 0.0
2017-Oct-04 00:30N 38°45' W 009°06'0 0.0
2017-Oct-03 23:48N 38°45' W 009°06'0 0.0
2017-Oct-03 23:21N 38°45' W 009°06'0 0.0
2017-Oct-03 22:57N 38°45' W 009°06'0 0.0
2017-Oct-03 22:21N 38°45' W 009°06'0 0.0
2017-Oct-03 21:59N 38°45' W 009°06'0 0.0
2017-Oct-03 21:29N 38°45' W 009°06'0 0.0
2017-Oct-03 20:50N 38°45' W 009°06'0 0.0
2017-Oct-03 20:29N 38°45' W 009°06'0 0.0
2017-Oct-03 19:56N 38°45' W 009°06'0 0.0
2017-Oct-03 19:11N 38°45' W 009°06'0 0.0
2017-Oct-03 18:59N 38°45' W 009°06'0 0.0
2017-Oct-03 18:21N 38°45' W 009°06'0 0.0
2017-Oct-03 17:42N 38°45' W 009°06'0 0.0
2017-Oct-03 17:27N 38°45' W 009°06'0 0.0
2017-Oct-03 16:57N 38°45' W 009°06'0 0.0
2017-Oct-03 16:30N 38°45' W 009°06'0 0.0
2017-Oct-03 15:32N 38°45' W 009°06'0 0.0
2017-Oct-03 15:08N 38°45' W 009°06'0 0.0
2017-Oct-03 14:50N 38°45' W 009°06'0 0.0
2017-Oct-03 11:56N 38°45' W 009°06'0 0.0
2017-Oct-03 11:17N 38°45' W 009°06'0 0.0
2017-Oct-03 10:59N 38°45' W 009°06'0 0.0
2017-Oct-03 10:29N 38°45' W 009°06'0 0.0
2017-Oct-03 09:56N 38°45' W 009°06'0 0.0
2017-Oct-03 09:29N 38°45' W 009°06'0 0.0
2017-Oct-03 08:59N 38°45' W 009°06'0 0.0
2017-Oct-03 08:23N 38°45' W 009°06'0 0.0
2017-Oct-03 07:56N 38°45' W 009°06'0 0.0
2017-Oct-03 07:29N 38°45' W 009°06'0 0.0
2017-Oct-03 06:53N 38°45' W 009°06'0 0.0
2017-Oct-03 06:29N 38°45' W 009°06'0 0.0
2017-Oct-03 05:59N 38°45' W 009°06'0 0.0
2017-Oct-03 05:29N 38°45' W 009°06'0 0.0
2017-Oct-03 04:59N 38°45' W 009°06'0 0.0
2017-Oct-03 03:32N 38°45' W 009°06'0 0.0
2017-Oct-03 03:26N 38°45' W 009°06'0 0.0
2017-Oct-03 02:56N 38°45' W 009°06'0 0.0
2017-Oct-03 02:23N 38°45' W 009°06'0 0.0
2017-Oct-03 01:56N 38°45' W 009°06'0 0.0
2017-Oct-02 19:47N 38°45' W 009°06'0 0.0
2017-Oct-02 09:58N 38°45' W 009°06'0 0.0
2017-Oct-02 09:28N 38°45' W 009°06'0 0.0
2017-Oct-02 08:58N 38°45' W 009°06'0 0.0
2017-Oct-02 07:46N 38°45' W 009°06'0 0.0
2017-Oct-02 07:28N 38°45' W 009°06'0 0.0
2017-Oct-02 06:52N 38°45' W 009°06'0 0.0
2017-Oct-02 05:40N 38°45' W 009°06'0 0.0
2017-Oct-02 05:22N 38°45' W 009°06'0 0.0
2017-Oct-02 04:55N 38°45' W 009°06'0 0.0
2017-Oct-02 04:28N 38°45' W 009°06'0 0.0
2017-Oct-02 03:52N 38°45' W 009°06'0 0.0
2017-Oct-02 02:31N 38°45' W 009°06'0 0.0
2017-Oct-02 02:01N 38°45' W 009°06'0 0.0
2017-Oct-02 01:55N 38°45' W 009°06'0 0.0
2017-Oct-02 01:28N 38°45' W 009°06'0 0.0
2017-Oct-02 00:58N 38°45' W 009°06'0 0.0
2017-Oct-02 00:22N 38°45' W 009°06'0 0.0
2017-Oct-01 23:58N 38°45' W 009°06'0 0.0
2017-Oct-01 23:13N 38°45' W 009°06'0 0.0
2017-Oct-01 22:55N 38°45' W 009°06'0 0.0
2017-Oct-01 22:19N 38°45' W 009°06'0 0.0
2017-Oct-01 21:43N 38°45' W 009°06'0 0.0
2017-Oct-01 21:19N 38°45' W 009°06'0 0.0
2017-Oct-01 20:57N 38°45' W 009°06'0 0.0
2017-Oct-01 20:12N 38°45' W 009°06'0 0.0
2017-Oct-01 19:54N 38°45' W 009°06'0 0.0
2017-Oct-01 16:45N 38°45' W 009°06'0 0.0
2017-Oct-01 16:24N 38°45' W 009°06'0 0.0
2017-Oct-01 11:11N 38°45' W 009°06'0 0.0
2017-Oct-01 10:38N 38°45' W 009°06'0 0.0
2017-Oct-01 10:26N 38°45' W 009°06'0 0.0
2017-Oct-01 09:59N 38°45' W 009°06'0 0.0
2017-Oct-01 09:29N 38°45' W 009°06'0 0.0
2017-Oct-01 08:59N 38°45' W 009°06'0 0.0
2017-Oct-01 08:17N 38°45' W 009°06'0 0.0
2017-Oct-01 07:59N 38°45' W 009°06'0 0.0
2017-Oct-01 06:05N 38°45' W 009°06'0 0.0
2017-Oct-01 05:50N 38°45' W 009°06'0 0.0
2017-Oct-01 05:23N 38°45' W 009°06'0 0.0
2017-Oct-01 04:38N 38°45' W 009°06'0 0.0
2017-Oct-01 04:20N 38°45' W 009°06'0 0.0
2017-Oct-01 03:17N 38°45' W 009°06'0 0.0
2017-Oct-01 02:59N 38°45' W 009°06'  

Dump ship's entire track history